Lillington, North Carolina
Current Conditions -  °F | °C
As of 2:55 AM on Tuesday 21 Oct 2014 (Local Time) from KHRJ Reporting Station
Broken Clouds Broken Clouds  
Wind Chill: 56°   Ceiling: 10000
Heat Index: 56°   Visibility: 10mi
Dew Point: 56°   Wind: 0mph
Humidity: 98%   Direction: NA
Pressure: 29.95"   Gusts: NA
Location:  35.4°N, 78.82°W
Report Text: KHRJ 210655Z AUTO 00000KT 10SM BKN100 14/13 A2995 RMK AO2 T01350132
Loading
Personal Weather Stations






























Interactive Weather Map
Tropical Storm Tracking
New forecast layout! Learn more

10-Day Weather Forecast

Advertisements
Track Severe Weather on mobile